createdAt,value
2022-08-04T00:00:01.982Z,0
2022-08-04T00:00:22.040Z,0
2022-08-04T00:00:42.121Z,0
2022-08-04T00:01:02.372Z,0
2022-08-04T00:01:22.333Z,0
2022-08-04T00:01:42.422Z,0
2022-08-04T00:02:02.586Z,0
2022-08-04T00:02:22.539Z,0
2022-08-04T00:02:42.628Z,0
2022-08-04T00:03:02.717Z,0
2022-08-04T00:03:22.782Z,0
2022-08-04T00:03:42.884Z,0
2022-08-04T00:04:02.970Z,0
2022-08-04T00:04:23.039Z,0
2022-08-04T00:04:43.128Z,0
2022-08-04T00:05:03.190Z,0
2022-08-04T00:05:23.316Z,0
2022-08-04T00:05:43.396Z,0
2022-08-04T00:06:03.542Z,0
2022-08-04T00:06:23.537Z,0
2022-08-04T00:06:43.628Z,0
2022-08-04T00:07:03.683Z,0
2022-08-04T00:07:44.195Z,0
2022-08-04T00:07:44.856Z,0
2022-08-04T00:08:03.946Z,0
2022-08-04T00:08:24.015Z,0
2022-08-04T00:08:44.116Z,0
2022-08-04T00:09:04.189Z,0
2022-08-04T00:09:24.241Z,0
2022-08-04T00:09:44.329Z,0
2022-08-04T00:10:04.399Z,0
2022-08-04T00:10:24.464Z,0
2022-08-04T00:10:44.537Z,0
2022-08-04T00:11:04.685Z,0
2022-08-04T00:11:24.697Z,0
2022-08-04T00:11:44.781Z,0
2022-08-04T00:12:04.851Z,0
2022-08-04T00:12:31.196Z,0
2022-08-04T00:12:45.008Z,0
2022-08-04T00:13:05.089Z,0
2022-08-04T00:13:25.167Z,0
2022-08-04T00:13:58.215Z,0
2022-08-04T00:14:05.352Z,0
2022-08-04T00:14:25.432Z,0
2022-08-04T00:14:45.506Z,0
2022-08-04T00:15:05.626Z,0
2022-08-04T00:15:25.691Z,0
2022-08-04T00:15:45.780Z,0
2022-08-04T00:16:05.899Z,0
2022-08-04T00:16:25.907Z,0
2022-08-04T00:16:46.010Z,0
2022-08-04T00:17:06.105Z,0
2022-08-04T00:17:26.204Z,0
2022-08-04T00:17:46.291Z,0
2022-08-04T00:18:06.330Z,0
2022-08-04T00:18:26.421Z,0
2022-08-04T00:18:46.468Z,0
2022-08-04T00:19:06.554Z,0
2022-08-04T00:19:26.646Z,0
2022-08-04T00:19:46.711Z,0
2022-08-04T00:20:06.805Z,0
2022-08-04T00:20:26.889Z,0
2022-08-04T00:20:46.956Z,0
2022-08-04T00:21:07.097Z,0
2022-08-04T00:21:27.082Z,0
2022-08-04T00:21:47.161Z,0
2022-08-04T00:22:07.244Z,0
2022-08-04T00:22:27.304Z,0
2022-08-04T00:22:47.374Z,0
2022-08-04T00:23:07.426Z,0
2022-08-04T00:23:27.506Z,0
2022-08-04T00:24:10.623Z,0
2022-08-04T00:24:12.081Z,0
2022-08-04T00:24:27.752Z,0
2022-08-04T00:24:47.813Z,0
2022-08-04T00:25:07.871Z,0
2022-08-04T00:25:27.958Z,0
2022-08-04T00:25:48.016Z,0
2022-08-04T00:26:08.175Z,0
2022-08-04T00:26:28.185Z,0
2022-08-04T00:26:48.235Z,0
2022-08-04T00:27:08.308Z,0
2022-08-04T00:27:28.385Z,0
2022-08-04T00:27:48.483Z,0
2022-08-04T00:28:08.578Z,0
2022-08-04T00:28:28.650Z,0
2022-08-04T00:28:48.734Z,0
2022-08-04T00:29:08.795Z,0
2022-08-04T00:29:28.834Z,0
2022-08-04T00:29:48.962Z,0
2022-08-04T00:30:09.024Z,0
2022-08-04T00:30:29.132Z,0
2022-08-04T00:30:49.189Z,0
2022-08-04T00:31:09.319Z,0
2022-08-04T00:31:53.780Z,0
2022-08-04T00:31:54.653Z,0
2022-08-04T00:32:09.474Z,0
2022-08-04T00:32:34.667Z,0
2022-08-04T00:32:49.639Z,0
2022-08-04T00:33:09.731Z,0
2022-08-04T00:33:29.835Z,0
2022-08-04T00:33:49.905Z,0
2022-08-04T00:34:09.981Z,0
2022-08-04T00:34:30.069Z,0
2022-08-04T00:34:50.161Z,0
2022-08-04T00:35:10.220Z,0
2022-08-04T00:35:30.280Z,0
2022-08-04T00:35:50.387Z,0
2022-08-04T00:36:10.517Z,0
2022-08-04T00:36:30.528Z,0
2022-08-04T00:36:50.598Z,0
2022-08-04T00:37:10.680Z,0
2022-08-04T00:37:30.762Z,0
2022-08-04T00:37:50.838Z,0
2022-08-04T00:38:10.920Z,0
2022-08-04T00:38:31.010Z,0
2022-08-04T00:38:51.109Z,0
2022-08-04T00:39:11.152Z,0
2022-08-04T00:39:31.280Z,0
2022-08-04T00:39:51.277Z,0
2022-08-04T00:40:11.355Z,0
2022-08-04T00:40:31.452Z,0
2022-08-04T00:40:51.518Z,0
2022-08-04T00:41:11.677Z,0
2022-08-04T00:41:31.672Z,0
2022-08-04T00:41:56.662Z,0
2022-08-04T00:42:11.863Z,0
2022-08-04T00:42:31.917Z,0
2022-08-04T00:42:58.452Z,0
2022-08-04T00:43:12.117Z,0
2022-08-04T00:43:32.161Z,0
2022-08-04T00:43:52.220Z,0
2022-08-04T00:44:12.330Z,0
2022-08-04T00:44:32.416Z,0
2022-08-04T00:44:52.499Z,0
2022-08-04T00:45:12.585Z,0
2022-08-04T00:46:15.665Z,0
2022-08-04T00:46:16.448Z,0
2022-08-04T00:46:17.229Z,0
2022-08-04T00:46:32.876Z,0
2022-08-04T00:46:52.971Z,0
2022-08-04T00:47:13.075Z,0
2022-08-04T00:47:33.133Z,0
2022-08-04T00:47:53.198Z,0
2022-08-04T00:48:13.246Z,0
2022-08-04T00:48:33.301Z,0
2022-08-04T00:48:53.382Z,0
2022-08-04T00:49:13.442Z,0
2022-08-04T00:49:33.486Z,0
2022-08-04T00:49:53.583Z,0
2022-08-04T00:50:13.643Z,0
2022-08-04T00:50:33.759Z,0
2022-08-04T00:50:53.842Z,0
2022-08-04T00:51:14.021Z,0
2022-08-04T00:51:34.029Z,0
2022-08-04T00:52:31.964Z,0
2022-08-04T00:52:32.084Z,0
2022-08-04T00:52:34.259Z,0
2022-08-04T00:52:54.336Z,0
2022-08-04T00:53:14.419Z,0
2022-08-04T00:53:34.523Z,0
2022-08-04T00:53:54.621Z,0
2022-08-04T00:54:14.701Z,0
2022-08-04T00:54:34.790Z,0
2022-08-04T00:54:54.869Z,0
2022-08-04T00:55:14.954Z,0
2022-08-04T00:55:35.023Z,0
2022-08-04T00:55:55.123Z,0
2022-08-04T00:56:15.280Z,0
2022-08-04T00:56:35.282Z,0
2022-08-04T00:56:55.362Z,0
2022-08-04T00:57:33.656Z,0
2022-08-04T00:57:35.704Z,0
2022-08-04T00:57:55.589Z,0
2022-08-04T00:58:15.649Z,0
2022-08-04T00:58:35.720Z,0
2022-08-04T00:58:55.837Z,0
2022-08-04T00:59:15.898Z,0
2022-08-04T00:59:35.971Z,0
2022-08-04T00:59:56.041Z,0
2022-08-04T01:00:16.150Z,0
2022-08-04T01:00:36.206Z,0
2022-08-04T01:00:56.300Z,0
2022-08-04T01:01:16.463Z,0
2022-08-04T01:01:36.517Z,0
2022-08-04T01:01:56.723Z,0
2022-08-04T01:02:16.619Z,0
2022-08-04T01:02:36.717Z,0
2022-08-04T01:02:56.739Z,0
2022-08-04T01:03:16.818Z,0
2022-08-04T01:03:36.895Z,0
2022-08-04T01:03:56.980Z,0
2022-08-04T01:04:19.726Z,0
2022-08-04T01:04:37.130Z,0
2022-08-04T01:04:57.202Z,0
2022-08-04T01:05:17.272Z,0
2022-08-04T01:05:38.025Z,0
2022-08-04T01:05:57.449Z,0
2022-08-04T01:06:17.604Z,0
2022-08-04T01:06:37.669Z,0
2022-08-04T01:06:57.737Z,0
2022-08-04T01:07:17.835Z,0
2022-08-04T01:07:37.883Z,0
2022-08-04T01:07:57.948Z,0
2022-08-04T01:08:18.025Z,0
2022-08-04T01:08:38.073Z,0
2022-08-04T01:08:58.146Z,0
2022-08-04T01:09:21.707Z,0
2022-08-04T01:09:38.280Z,0
2022-08-04T01:09:58.386Z,0
2022-08-04T01:10:18.469Z,0
2022-08-04T01:10:38.510Z,0
2022-08-04T01:10:58.598Z,0
2022-08-04T01:11:18.771Z,0
2022-08-04T01:11:56.974Z,0
2022-08-04T01:11:58.850Z,0
2022-08-04T01:12:18.951Z,0
2022-08-04T01:12:39.043Z,0
2022-08-04T01:12:59.113Z,0
2022-08-04T01:13:19.194Z,0
2022-08-04T01:13:39.291Z,0
2022-08-04T01:13:59.376Z,0
2022-08-04T01:14:19.453Z,0
2022-08-04T01:14:39.540Z,0
2022-08-04T01:14:59.616Z,0
2022-08-04T01:15:19.704Z,0
2022-08-04T01:15:53.817Z,0
2022-08-04T01:16:01.042Z,0
2022-08-04T01:16:20.057Z,0
2022-08-04T01:16:40.058Z,0
2022-08-04T01:17:00.163Z,0
2022-08-04T01:17:20.450Z,0
2022-08-04T01:17:40.329Z,0
2022-08-04T01:18:00.394Z,0
2022-08-04T01:18:20.448Z,0
2022-08-04T01:18:40.526Z,0
2022-08-04T01:19:00.592Z,0
2022-08-04T01:19:20.683Z,0
2022-08-04T01:19:40.745Z,0
2022-08-04T01:20:00.813Z,0
2022-08-04T01:20:20.891Z,0
2022-08-04T01:20:40.972Z,0
2022-08-04T01:21:01.055Z,0
2022-08-04T01:21:21.184Z,0
2022-08-04T01:21:41.190Z,0
2022-08-04T01:22:01.294Z,0
2022-08-04T01:22:21.376Z,0
2022-08-04T01:22:41.410Z,0
2022-08-04T01:23:01.482Z,0
2022-08-04T01:23:21.575Z,0
2022-08-04T01:23:41.642Z,0
2022-08-04T01:24:01.704Z,0
2022-08-04T01:24:21.814Z,0
2022-08-04T01:24:41.857Z,0
2022-08-04T01:25:02.168Z,0
2022-08-04T01:25:22.655Z,0
2022-08-04T01:25:42.186Z,0
2022-08-04T01:26:02.189Z,0
2022-08-04T01:26:43.919Z,0
2022-08-04T01:26:53.644Z,0
2022-08-04T01:27:02.407Z,0
2022-08-04T01:27:22.828Z,0
2022-08-04T01:27:42.560Z,0
2022-08-04T01:28:02.641Z,0
2022-08-04T01:28:22.747Z,0
2022-08-04T01:28:43.019Z,0
2022-08-04T01:29:02.883Z,0
2022-08-04T01:29:22.970Z,0
2022-08-04T01:29:47.421Z,0
2022-08-04T01:30:03.126Z,0
2022-08-04T01:30:23.208Z,0
2022-08-04T01:30:43.256Z,0
2022-08-04T01:31:03.352Z,0
2022-08-04T01:31:23.483Z,0
2022-08-04T01:31:43.479Z,0
2022-08-04T01:32:03.565Z,0
2022-08-04T01:32:25.716Z,0
2022-08-04T01:32:43.728Z,0
2022-08-04T01:33:03.817Z,0
2022-08-04T01:33:23.888Z,0
2022-08-04T01:34:03.961Z,0
2022-08-04T01:34:04.941Z,0
2022-08-04T01:34:24.120Z,0
2022-08-04T01:34:44.188Z,0
2022-08-04T01:35:04.241Z,0
2022-08-04T01:35:46.683Z,0
2022-08-04T01:35:47.351Z,0
2022-08-04T01:36:04.461Z,0
2022-08-04T01:36:24.618Z,0
2022-08-04T01:36:44.573Z,0
2022-08-04T01:37:04.657Z,0
2022-08-04T01:37:24.720Z,0
2022-08-04T01:37:44.804Z,0
2022-08-04T01:38:18.229Z,0
2022-08-04T01:38:24.998Z,0
2022-08-04T01:38:45.069Z,0
2022-08-04T01:39:05.198Z,0
2022-08-04T01:39:25.362Z,0
2022-08-04T01:39:45.317Z,0
2022-08-04T01:40:05.426Z,0
2022-08-04T01:40:25.468Z,0
2022-08-04T01:40:45.542Z,0
2022-08-04T01:41:05.616Z,0
2022-08-04T01:41:32.552Z,0
2022-08-04T01:41:58.033Z,0
2022-08-04T01:42:05.872Z,0
2022-08-04T01:42:31.626Z,0
2022-08-04T01:42:46.240Z,0
2022-08-04T01:43:06.125Z,0
2022-08-04T01:43:26.224Z,0
2022-08-04T01:43:46.312Z,0
2022-08-04T01:44:06.388Z,0
2022-08-04T01:44:26.437Z,0
2022-08-04T01:44:46.524Z,0
2022-08-04T01:45:06.594Z,0
2022-08-04T01:45:26.699Z,0
2022-08-04T01:45:46.738Z,0
2022-08-04T01:46:07.058Z,0
2022-08-04T01:46:26.982Z,0
2022-08-04T01:46:47.011Z,0
2022-08-04T01:47:07.083Z,0
2022-08-04T01:47:27.146Z,0
2022-08-04T01:47:47.250Z,0
2022-08-04T01:48:07.359Z,0
2022-08-04T01:48:27.434Z,0
2022-08-04T01:48:47.485Z,0
2022-08-04T01:49:07.543Z,0
2022-08-04T01:49:27.631Z,0
2022-08-04T01:49:47.690Z,0
2022-08-04T01:50:07.767Z,0
2022-08-04T01:50:27.819Z,0
2022-08-04T01:50:47.882Z,0
2022-08-04T01:51:07.944Z,0
2022-08-04T01:51:28.104Z,0
2022-08-04T01:51:48.134Z,0
2022-08-04T01:52:08.210Z,0
2022-08-04T01:52:28.282Z,0
2022-08-04T01:52:51.198Z,0
2022-08-04T01:53:08.406Z,0
2022-08-04T01:53:28.474Z,0
2022-08-04T01:53:48.542Z,0
2022-08-04T01:54:08.624Z,0
2022-08-04T01:54:28.677Z,0
2022-08-04T01:54:48.760Z,0
2022-08-04T01:55:08.834Z,0
2022-08-04T01:55:51.833Z,0
2022-08-04T01:55:54.971Z,0
2022-08-04T01:56:09.042Z,0
2022-08-04T01:56:29.208Z,0
2022-08-04T01:56:49.199Z,0
2022-08-04T01:57:37.908Z,0
2022-08-04T01:57:38.400Z,0
2022-08-04T01:57:49.408Z,0
2022-08-04T01:58:09.476Z,0
2022-08-04T01:58:29.557Z,0
2022-08-04T01:58:49.646Z,0
2022-08-04T01:59:09.731Z,0
2022-08-04T01:59:29.856Z,0
2022-08-04T01:59:49.917Z,0
2022-08-04T02:00:09.986Z,0
2022-08-04T02:00:30.063Z,0
2022-08-04T02:00:53.273Z,0
2022-08-04T02:01:10.324Z,0
2022-08-04T02:01:30.540Z,0
2022-08-04T02:01:50.539Z,0
2022-08-04T02:02:10.620Z,0
2022-08-04T02:02:30.745Z,0
2022-08-04T02:02:50.768Z,0
2022-08-04T02:03:10.700Z,0
2022-08-04T02:04:18.242Z,0
2022-08-04T02:04:18.594Z,0
2022-08-04T02:04:21.882Z,0
2022-08-04T02:04:31.007Z,0
2022-08-04T02:04:51.092Z,0
2022-08-04T02:05:11.186Z,0
2022-08-04T02:06:03.058Z,0
2022-08-04T02:06:03.430Z,0
2022-08-04T02:06:11.441Z,0
2022-08-04T02:06:31.587Z,0
2022-08-04T02:06:51.592Z,0
2022-08-04T02:07:11.672Z,0
2022-08-04T02:07:31.745Z,0
2022-08-04T02:07:51.807Z,0
2022-08-04T02:08:11.859Z,0
2022-08-04T02:08:31.935Z,0
2022-08-04T02:08:52.025Z,0
2022-08-04T02:09:12.092Z,0
2022-08-04T02:09:32.185Z,0
2022-08-04T02:09:54.237Z,0
2022-08-04T02:10:12.325Z,0
2022-08-04T02:10:32.379Z,0
2022-08-04T02:10:52.460Z,0
2022-08-04T02:11:12.561Z,0
2022-08-04T02:11:32.706Z,0
2022-08-04T02:11:52.738Z,0
2022-08-04T02:12:16.091Z,0
2022-08-04T02:12:32.908Z,0
2022-08-04T02:12:53.000Z,0
2022-08-04T02:13:13.059Z,0
2022-08-04T02:13:33.161Z,0
2022-08-04T02:13:53.264Z,0
2022-08-04T02:14:13.340Z,0
2022-08-04T02:14:33.440Z,0
2022-08-04T02:14:53.523Z,0
2022-08-04T02:15:13.598Z,0
2022-08-04T02:15:33.667Z,0
2022-08-04T02:15:53.735Z,0
2022-08-04T02:16:13.814Z,0
2022-08-04T02:16:33.982Z,0
2022-08-04T02:16:53.967Z,0
2022-08-04T02:17:14.038Z,0
2022-08-04T02:17:34.114Z,0
2022-08-04T02:17:54.179Z,0
2022-08-04T02:18:14.238Z,0
2022-08-04T02:18:34.337Z,0
2022-08-04T02:18:54.401Z,0
2022-08-04T02:19:14.735Z,0
2022-08-04T02:19:34.573Z,0
2022-08-04T02:19:54.657Z,0
2022-08-04T02:20:14.737Z,0
2022-08-04T02:20:34.796Z,0
2022-08-04T02:20:54.881Z,0
2022-08-04T02:21:14.950Z,0
2022-08-04T02:21:42.361Z,0
2022-08-04T02:21:55.130Z,0
2022-08-04T02:22:15.187Z,0
2022-08-04T02:22:35.303Z,0
2022-08-04T02:22:55.375Z,0
2022-08-04T02:23:15.462Z,0
2022-08-04T02:23:35.524Z,0
2022-08-04T02:23:55.607Z,0
2022-08-04T02:24:15.676Z,0
2022-08-04T02:24:35.782Z,0
2022-08-04T02:24:55.863Z,0
2022-08-04T02:25:15.935Z,0
2022-08-04T02:25:36.001Z,0
2022-08-04T02:25:56.082Z,0
2022-08-04T02:26:22.069Z,0
2022-08-04T02:26:36.327Z,0
2022-08-04T02:26:56.331Z,0
2022-08-04T02:27:16.383Z,0
2022-08-04T02:28:00.044Z,0
2022-08-04T02:28:00.602Z,0
2022-08-04T02:28:16.590Z,0
2022-08-04T02:28:36.661Z,0
2022-08-04T02:28:56.749Z,0
2022-08-04T02:29:16.817Z,0
2022-08-04T02:29:36.884Z,0
2022-08-04T02:29:56.954Z,0
2022-08-04T02:30:18.520Z,0
2022-08-04T02:30:37.122Z,0
2022-08-04T02:30:57.202Z,0
2022-08-04T02:31:17.259Z,0
2022-08-04T02:31:37.416Z,0
2022-08-04T02:31:57.395Z,0
2022-08-04T02:32:17.458Z,0
2022-08-04T02:32:37.517Z,0
2022-08-04T02:32:57.607Z,0
2022-08-04T02:33:17.671Z,0
2022-08-04T02:33:37.767Z,0
2022-08-04T02:33:57.829Z,0
2022-08-04T02:34:17.913Z,0
2022-08-04T02:34:38.001Z,0
2022-08-04T02:34:58.061Z,0
2022-08-04T02:35:18.150Z,0
2022-08-04T02:35:38.215Z,0
2022-08-04T02:35:58.306Z,0
2022-08-04T02:36:18.406Z,0
2022-08-04T02:36:38.552Z,0
2022-08-04T02:36:58.575Z,0
2022-08-04T02:37:18.693Z,0
2022-08-04T02:37:38.762Z,0
2022-08-04T02:37:58.828Z,0
2022-08-04T02:38:25.746Z,0
2022-08-04T02:38:38.975Z,0
2022-08-04T02:38:59.179Z,0
2022-08-04T02:39:19.239Z,0
2022-08-04T02:39:48.165Z,0
2022-08-04T02:39:59.362Z,0
2022-08-04T02:40:19.443Z,0
2022-08-04T02:40:39.519Z,0
2022-08-04T02:41:00.379Z,0
2022-08-04T02:41:19.675Z,0
2022-08-04T02:41:39.834Z,0
2022-08-04T02:41:59.837Z,0
2022-08-04T02:42:19.909Z,0
2022-08-04T02:42:40.014Z,0
2022-08-04T02:43:00.105Z,0
2022-08-04T02:43:20.179Z,0
2022-08-04T02:43:52.106Z,0
2022-08-04T02:44:00.313Z,0
2022-08-04T02:44:20.410Z,0
2022-08-04T02:44:40.482Z,0
2022-08-04T02:45:00.560Z,0
2022-08-04T02:45:20.639Z,0
2022-08-04T02:45:40.700Z,0
2022-08-04T02:46:00.766Z,0
2022-08-04T02:46:20.848Z,0
2022-08-04T02:46:41.005Z,0
2022-08-04T02:47:00.969Z,0
2022-08-04T02:47:21.318Z,0
2022-08-04T02:48:23.611Z,0
2022-08-04T02:48:29.062Z,0
2022-08-04T02:48:30.557Z,0
2022-08-04T02:48:41.339Z,0
2022-08-04T02:49:01.420Z,0
2022-08-04T02:49:21.501Z,0
2022-08-04T02:49:41.562Z,0
2022-08-04T02:50:01.608Z,0
2022-08-04T02:50:28.227Z,0
2022-08-04T02:50:41.754Z,0
2022-08-04T02:51:01.781Z,0
2022-08-04T02:51:21.851Z,0
2022-08-04T02:51:42.003Z,0
2022-08-04T02:52:02.025Z,0
2022-08-04T02:52:22.103Z,0
2022-08-04T02:52:42.181Z,0
2022-08-04T02:53:02.253Z,0
2022-08-04T02:53:22.319Z,0
2022-08-04T02:53:42.394Z,0
2022-08-04T02:54:02.475Z,0
2022-08-04T02:54:32.508Z,0
2022-08-04T02:54:42.646Z,0
2022-08-04T02:55:02.734Z,0
2022-08-04T02:55:22.807Z,0
2022-08-04T02:55:50.822Z,0
2022-08-04T02:56:02.972Z,0
2022-08-04T02:56:23.026Z,0
2022-08-04T02:56:43.191Z,0
2022-08-04T02:57:04.470Z,0
2022-08-04T02:57:23.531Z,0
2022-08-04T02:57:43.314Z,0
2022-08-04T02:58:03.413Z,0
2022-08-04T02:58:23.493Z,0
2022-08-04T02:58:43.557Z,0
2022-08-04T02:59:03.642Z,0
2022-08-04T02:59:23.711Z,0
2022-08-04T02:59:43.790Z,0
2022-08-04T03:00:03.837Z,0
2022-08-04T03:00:23.892Z,0
2022-08-04T03:00:43.984Z,0
2022-08-04T03:01:04.183Z,0
2022-08-04T03:01:24.282Z,0
2022-08-04T03:01:57.009Z,0
2022-08-04T03:02:04.257Z,0
2022-08-04T03:02:24.338Z,0
2022-08-04T03:02:44.429Z,0
2022-08-04T03:03:04.526Z,0
2022-08-04T03:03:24.572Z,0
2022-08-04T03:03:44.650Z,0
2022-08-04T03:04:04.706Z,0
2022-08-04T03:04:25.433Z,0
2022-08-04T03:04:44.860Z,0
2022-08-04T03:05:04.925Z,0
2022-08-04T03:05:25.012Z,0
2022-08-04T03:05:57.742Z,0
2022-08-04T03:06:08.792Z,0
2022-08-04T03:06:25.265Z,0
2022-08-04T03:06:45.390Z,0
2022-08-04T03:07:05.386Z,0
2022-08-04T03:07:25.476Z,0
2022-08-04T03:07:45.564Z,0
2022-08-04T03:08:05.647Z,0
2022-08-04T03:08:25.716Z,0
2022-08-04T03:08:45.781Z,0
2022-08-04T03:09:05.847Z,0
2022-08-04T03:09:25.936Z,0
2022-08-04T03:09:46.000Z,0
2022-08-04T03:10:06.064Z,0
2022-08-04T03:10:26.162Z,0
2022-08-04T03:10:46.862Z,0
2022-08-04T03:11:06.334Z,0
2022-08-04T03:11:26.455Z,0
2022-08-04T03:11:46.603Z,0
2022-08-04T03:12:06.591Z,0
2022-08-04T03:12:26.661Z,0
2022-08-04T03:12:46.730Z,0
2022-08-04T03:13:06.813Z,0
2022-08-04T03:13:26.895Z,0
2022-08-04T03:13:46.975Z,0
2022-08-04T03:14:09.509Z,0
2022-08-04T03:14:27.118Z,0
2022-08-04T03:14:47.212Z,0
2022-08-04T03:15:07.288Z,0
2022-08-04T03:15:27.352Z,0
2022-08-04T03:15:47.432Z,0
2022-08-04T03:16:07.514Z,0
2022-08-04T03:16:30.264Z,0
2022-08-04T03:16:47.709Z,0
2022-08-04T03:17:07.726Z,0
2022-08-04T03:17:27.801Z,0
2022-08-04T03:17:52.873Z,0
2022-08-04T03:18:07.955Z,0
2022-08-04T03:18:28.035Z,0
2022-08-04T03:18:48.109Z,0
2022-08-04T03:19:08.170Z,0
2022-08-04T03:19:28.247Z,0
2022-08-04T03:19:48.320Z,0
2022-08-04T03:20:08.425Z,0
2022-08-04T03:20:28.499Z,0
2022-08-04T03:20:48.577Z,0
2022-08-04T03:21:08.657Z,0
2022-08-04T03:21:28.745Z,0
2022-08-04T03:21:48.872Z,0
2022-08-04T03:22:08.852Z,0
2022-08-04T03:22:28.957Z,0
2022-08-04T03:23:11.565Z,0
2022-08-04T03:23:13.888Z,0
2022-08-04T03:23:29.195Z,0
2022-08-04T03:23:49.294Z,0
2022-08-04T03:24:09.372Z,0
2022-08-04T03:24:29.426Z,0
2022-08-04T03:24:49.538Z,0
2022-08-04T03:25:09.641Z,0
2022-08-04T03:25:29.714Z,0
2022-08-04T03:25:57.359Z,0
2022-08-04T03:26:09.854Z,0
2022-08-04T03:26:29.932Z,0
2022-08-04T03:26:50.080Z,0
2022-08-04T03:27:10.111Z,0
2022-08-04T03:27:30.197Z,0
2022-08-04T03:27:50.280Z,0
2022-08-04T03:28:10.338Z,0
2022-08-04T03:28:30.422Z,0
2022-08-04T03:28:50.510Z,0
2022-08-04T03:29:10.604Z,0
2022-08-04T03:29:36.706Z,0
2022-08-04T03:29:50.753Z,0
2022-08-04T03:30:10.842Z,0
2022-08-04T03:30:30.934Z,0
2022-08-04T03:30:51.011Z,0
2022-08-04T03:31:11.096Z,0
2022-08-04T03:31:31.190Z,0
2022-08-04T03:31:51.346Z,0
2022-08-04T03:32:11.377Z,0
2022-08-04T03:32:31.460Z,0
2022-08-04T03:32:51.553Z,0
2022-08-04T03:33:11.631Z,0
2022-08-04T03:33:31.718Z,0
2022-08-04T03:33:51.777Z,0
2022-08-04T03:34:11.862Z,0
2022-08-04T03:34:31.959Z,0
2022-08-04T03:34:52.065Z,0
2022-08-04T03:35:13.494Z,0
2022-08-04T03:35:32.190Z,0
2022-08-04T03:35:52.284Z,0
2022-08-04T03:36:12.381Z,0
2022-08-04T03:36:32.478Z,0
2022-08-04T03:36:52.606Z,0
2022-08-04T03:37:12.691Z,0
2022-08-04T03:37:32.681Z,0
2022-08-04T03:37:52.775Z,0
2022-08-04T03:38:12.835Z,0
2022-08-04T03:38:32.932Z,0
2022-08-04T03:38:57.081Z,0
2022-08-04T03:39:13.113Z,0
2022-08-04T03:39:33.255Z,0
2022-08-04T03:39:53.235Z,0
2022-08-04T03:40:13.324Z,0
2022-08-04T03:40:33.387Z,0
2022-08-04T03:40:53.477Z,0
2022-08-04T03:41:13.558Z,0
2022-08-04T03:41:55.048Z,0
2022-08-04T03:42:03.541Z,0
2022-08-04T03:42:16.068Z,0
2022-08-04T03:42:33.944Z,0
2022-08-04T03:42:54.005Z,0
2022-08-04T03:43:57.757Z,0
2022-08-04T03:43:57.955Z,0
2022-08-04T03:43:59.172Z,0
2022-08-04T03:44:14.370Z,0
2022-08-04T03:44:34.437Z,0
2022-08-04T03:44:54.510Z,0
2022-08-04T03:45:20.580Z,0
2022-08-04T03:45:34.662Z,0
2022-08-04T03:45:54.764Z,0
2022-08-04T03:46:14.853Z,0
2022-08-04T03:46:34.885Z,0
2022-08-04T03:46:55.029Z,0
2022-08-04T03:47:15.037Z,0
2022-08-04T03:47:35.150Z,0
2022-08-04T03:47:55.214Z,0
2022-08-04T03:48:15.277Z,0
2022-08-04T03:48:35.363Z,0
2022-08-04T03:48:55.438Z,0
2022-08-04T03:49:15.514Z,0
2022-08-04T03:49:35.597Z,0
2022-08-04T03:49:55.673Z,0
2022-08-04T03:50:15.757Z,0
2022-08-04T03:50:40.910Z,0
2022-08-04T03:50:55.914Z,0
2022-08-04T03:51:34.926Z,0
2022-08-04T03:51:36.593Z,0
2022-08-04T03:51:56.162Z,0
2022-08-04T03:52:16.135Z,0
2022-08-04T03:52:36.194Z,0
2022-08-04T03:52:56.283Z,0
2022-08-04T03:53:16.388Z,0
2022-08-04T03:53:36.477Z,0
2022-08-04T03:53:56.542Z,0
2022-08-04T03:54:16.625Z,0
2022-08-04T03:54:36.686Z,0
2022-08-04T03:54:56.756Z,0
2022-08-04T03:55:16.818Z,0
2022-08-04T03:55:36.875Z,0
2022-08-04T03:55:56.988Z,0
2022-08-04T03:56:17.103Z,0
2022-08-04T03:56:37.181Z,0
2022-08-04T03:56:57.293Z,0
2022-08-04T03:57:17.295Z,0
2022-08-04T03:57:37.429Z,0
2022-08-04T03:57:57.457Z,0
2022-08-04T03:58:17.577Z,0
2022-08-04T03:58:37.720Z,0
2022-08-04T03:58:57.717Z,0
2022-08-04T03:59:17.835Z,0
2022-08-04T03:59:37.864Z,0
2022-08-04T03:59:57.966Z,0
2022-08-04T04:00:18.107Z,0
2022-08-04T04:00:38.170Z,0
2022-08-04T04:00:58.213Z,0
2022-08-04T04:01:18.320Z,0
2022-08-04T04:02:01.108Z,0
2022-08-04T04:02:02.700Z,0
2022-08-04T04:02:18.607Z,0
2022-08-04T04:02:38.713Z,0
2022-08-04T04:02:58.766Z,0
2022-08-04T04:03:28.356Z,0
2022-08-04T04:03:38.912Z,0
2022-08-04T04:03:58.988Z,0
2022-08-04T04:04:19.076Z,0
2022-08-04T04:04:39.157Z,0
2022-08-04T04:04:59.205Z,0
2022-08-04T04:05:19.690Z,0
2022-08-04T04:06:00.284Z,0
2022-08-04T04:06:02.017Z,0
2022-08-04T04:06:19.488Z,0
2022-08-04T04:06:39.553Z,0
2022-08-04T04:06:59.694Z,0
2022-08-04T04:07:24.368Z,0
2022-08-04T04:07:39.795Z,0
2022-08-04T04:08:01.988Z,0
2022-08-04T04:08:19.948Z,0
2022-08-04T04:08:40.020Z,0
2022-08-04T04:09:00.090Z,0
2022-08-04T04:09:20.477Z,0
2022-08-04T04:09:51.637Z,0
2022-08-04T04:10:06.188Z,0
2022-08-04T04:10:24.107Z,0
2022-08-04T04:10:40.498Z,0
2022-08-04T04:11:00.583Z,0
2022-08-04T04:11:20.656Z,0
2022-08-04T04:11:54.241Z,0
2022-08-04T04:12:00.902Z,0.049
2022-08-04T04:12:20.918Z,0.051
2022-08-04T04:12:41.000Z,0.051
2022-08-04T04:13:01.089Z,0.052
2022-08-04T04:13:21.185Z,0.054
2022-08-04T04:13:41.240Z,0.055
2022-08-04T04:14:01.331Z,0.055
2022-08-04T04:14:21.410Z,0.056
2022-08-04T04:14:41.475Z,0.056
2022-08-04T04:15:01.597Z,0.056
2022-08-04T04:15:21.658Z,0.063
2022-08-04T04:15:41.735Z,0.061
2022-08-04T04:16:01.827Z,0.06
2022-08-04T04:16:21.888Z,0.061
2022-08-04T04:16:41.975Z,0.062
2022-08-04T04:17:02.091Z,0.062
2022-08-04T04:17:22.549Z,0.063
2022-08-04T04:17:42.194Z,0.065
2022-08-04T04:18:02.246Z,0.066
2022-08-04T04:18:22.329Z,0.067
2022-08-04T04:18:42.402Z,0.067
2022-08-04T04:19:02.469Z,0.068
2022-08-04T04:19:22.552Z,0.069
2022-08-04T04:19:42.623Z,0.07
2022-08-04T04:20:02.695Z,0.072
2022-08-04T04:20:22.812Z,0.073
2022-08-04T04:20:42.867Z,0.073
2022-08-04T04:21:02.962Z,0.075
2022-08-04T04:21:23.054Z,0.076
2022-08-04T04:21:43.163Z,0.077
2022-08-04T04:22:03.271Z,0.081
2022-08-04T04:22:23.286Z,0.082
2022-08-04T04:22:43.347Z,0.083
2022-08-04T04:23:03.449Z,0.084
2022-08-04T04:23:23.514Z,0.085
2022-08-04T04:23:43.579Z,0.087
2022-08-04T04:24:03.658Z,0.088
2022-08-04T04:24:23.724Z,0.088
2022-08-04T04:24:43.803Z,0.09
2022-08-04T04:25:03.877Z,0.092
2022-08-04T04:25:23.940Z,0.09
2022-08-04T04:25:44.011Z,0.093
2022-08-04T04:26:04.106Z,0.094
2022-08-04T04:26:24.216Z,0.094
2022-08-04T04:26:44.298Z,0.095
2022-08-04T04:27:04.455Z,0.099
2022-08-04T04:27:24.470Z,0.102
2022-08-04T04:27:44.572Z,0.103
2022-08-04T04:28:44.286Z,0.105
2022-08-04T04:28:45.137Z,0.103
2022-08-04T04:28:46.963Z,0.105
2022-08-04T04:29:04.898Z,0.106
2022-08-04T04:29:24.971Z,0.108
2022-08-04T04:29:45.056Z,0.111
2022-08-04T04:30:05.136Z,0.111
2022-08-04T04:30:25.193Z,0.112
2022-08-04T04:30:45.289Z,0.113
2022-08-04T04:31:05.356Z,0.113
2022-08-04T04:31:25.465Z,0.115
2022-08-04T04:31:45.545Z,0.117
2022-08-04T04:32:05.670Z,0.119
2022-08-04T04:32:25.677Z,0.119
2022-08-04T04:32:45.737Z,0.12
2022-08-04T04:33:05.821Z,0.122
2022-08-04T04:33:25.913Z,0.125
2022-08-04T04:33:45.971Z,0.124
2022-08-04T04:34:06.041Z,0.125
2022-08-04T04:34:26.146Z,0.127
2022-08-04T04:34:46.617Z,0.13
2022-08-04T04:35:06.306Z,0.131
2022-08-04T04:35:26.409Z,0.134
2022-08-04T04:35:46.466Z,0.133
2022-08-04T04:36:06.571Z,0.13
2022-08-04T04:36:26.684Z,0.136
2022-08-04T04:36:46.770Z,0.138
2022-08-04T04:37:06.913Z,0.152
2022-08-04T04:37:26.923Z,0.156
2022-08-04T04:37:48.737Z,0.156
2022-08-04T04:38:07.122Z,0.157
2022-08-04T04:38:27.164Z,0.16
2022-08-04T04:38:47.240Z,0.162
2022-08-04T04:39:07.397Z,0.163
2022-08-04T04:39:27.445Z,0.164
2022-08-04T04:39:47.500Z,0.165
2022-08-04T04:40:07.579Z,0.167
2022-08-04T04:40:27.623Z,0.169
2022-08-04T04:40:47.703Z,0.169
2022-08-04T04:41:07.777Z,0.172
2022-08-04T04:41:27.869Z,0.173
2022-08-04T04:41:47.960Z,0.174
2022-08-04T04:42:08.103Z,0.177
2022-08-04T04:42:28.102Z,0.177
2022-08-04T04:42:48.186Z,0.177
2022-08-04T04:43:08.285Z,0.18
2022-08-04T04:43:51.086Z,0.182
2022-08-04T04:43:51.609Z,0.181
2022-08-04T04:44:08.498Z,0.183
2022-08-04T04:44:30.724Z,0.185
2022-08-04T04:44:48.658Z,0.186
2022-08-04T04:45:08.741Z,0.188
2022-08-04T04:45:28.831Z,0.189
2022-08-04T04:45:48.901Z,0.19
2022-08-04T04:46:08.951Z,0.192
2022-08-04T04:46:29.032Z,0.194
2022-08-04T04:46:49.106Z,0.195
2022-08-04T04:47:09.255Z,0.196
2022-08-04T04:48:08.879Z,0.197
2022-08-04T04:48:09.161Z,0.197
2022-08-04T04:48:10.850Z,0.201
2022-08-04T04:48:29.501Z,0.201
2022-08-04T04:48:49.554Z,0.201
2022-08-04T04:49:09.651Z,0.203
2022-08-04T04:49:29.713Z,0.205
2022-08-04T04:49:49.797Z,0.205
2022-08-04T04:50:09.871Z,0.207
2022-08-04T04:50:35.000Z,0.207
2022-08-04T04:50:50.008Z,0.209
2022-08-04T04:51:10.070Z,0.21